PWSweather.com
Personal Weather Stations
Station Observations
BURKEWX
Burke, VA

Burke, VA

Lat: 38.796, Lon: -77.256

Elevation: 308

Station Type: LaCrosse WS2308

High Low Average
Temperature 53.4°F11.9°C 45.1°F7.3°C 48.7°F9.3°C
Dew Point 50.1°F10.1°C 43.8°F6.6°C 46.6°F8.1°C
Winds 4.0 mph 6.4 kmh Calm Calm 1.0 mph ESE1.6 kmh ESE
Wind Gusts 8.3 mph13.4 kmh -- 2.0 mph3.2 kmh
Humidity 96% 88% 93%
Pressure 29.48 in998.3 mb 29.19 in988.5 mb -
Precipitation 0.81 in20.6 mm - -
Hour Temp Dew Point Humidity Winds Wind Gusts Pressure Precip Precip Rate Daily Precip Total
12:00 AM 53.4°F11.9°C 49.9°F9.9°C 88% Calm Calm -- 29.48 in998.3 mb 0.00 in0.0 mm 0.00 in/hr0.0 mm/hr 0.00 in0.0 mm
12:06 AM 53.4°F11.9°C 49.9°F9.9°C 88% Calm Calm -- 29.48 in998.3 mb 0.00 in0.0 mm 0.00 in/hr0.0 mm/hr 0.00 in0.0 mm
12:11 AM 53.4°F11.9°C 49.9°F9.9°C 88% Calm Calm -- 29.47 in998.0 mb 0.00 in0.0 mm 0.00 in/hr0.0 mm/hr 0.00 in0.0 mm
12:16 AM 53.2°F11.8°C 49.7°F9.8°C 88% 1.6 mph 2.6 kmh 1.6 mph2.6 kmh 29.47 in998.0 mb 0.00 in0.0 mm 0.00 in/hr0.0 mm/hr 0.00 in0.0 mm
12:21 AM 53.2°F11.8°C 49.7°F9.8°C 88% Calm Calm 1.6 mph2.6 kmh 29.46 in997.6 mb 0.00 in0.0 mm 0.00 in/hr0.0 mm/hr 0.00 in0.0 mm
12:26 AM 53.2°F11.8°C 49.7°F9.8°C 88% Calm Calm -- 29.46 in997.6 mb 0.00 in0.0 mm 0.00 in/hr0.0 mm/hr 0.00 in0.0 mm
12:31 AM 53.2°F11.8°C 50.1°F10.1°C 89% Calm Calm -- 29.47 in998.0 mb 0.00 in0.0 mm 0.00 in/hr0.0 mm/hr 0.00 in0.0 mm
12:36 AM 53.2°F11.8°C 50.1°F10.1°C 89% 1.6 mph NNW2.6 kmh NNW 2.2 mph3.5 kmh 29.46 in997.6 mb 0.00 in0.0 mm 0.00 in/hr0.0 mm/hr 0.00 in0.0 mm
12:41 AM 52.9°F11.6°C 49.7°F9.8°C 89% 1.6 mph NNW2.6 kmh NNW 2.2 mph3.5 kmh 29.46 in997.6 mb 0.00 in0.0 mm 0.00 in/hr0.0 mm/hr 0.00 in0.0 mm
12:46 AM 52.9°F11.6°C 49.7°F9.8°C 89% 2.2 mph WSW3.5 kmh WSW 2.2 mph3.5 kmh 29.46 in997.6 mb 0.00 in0.0 mm 0.00 in/hr0.0 mm/hr 0.00 in0.0 mm
12:51 AM 52.9°F11.6°C 49.7°F9.8°C 89% Calm Calm 2.5 mph4.0 kmh 29.46 in997.6 mb 0.00 in0.0 mm 0.00 in/hr0.0 mm/hr 0.00 in0.0 mm
12:56 AM 52.9°F11.6°C 49.7°F9.8°C 89% Calm Calm 2.5 mph4.0 kmh 29.47 in998.0 mb 0.00 in0.0 mm 0.00 in/hr0.0 mm/hr 0.00 in0.0 mm
01:01 AM 52.9°F11.6°C 49.7°F9.8°C 89% Calm Calm -- 29.47 in998.0 mb 0.00 in0.0 mm 0.00 in/hr0.0 mm/hr 0.00 in0.0 mm
01:06 AM 52.7°F11.5°C 49.5°F9.7°C 89% Calm Calm -- 29.47 in998.0 mb 0.00 in0.0 mm 0.00 in/hr0.0 mm/hr 0.00 in0.0 mm
01:11 AM 52.7°F11.5°C 49.5°F9.7°C 89% Calm Calm -- 29.46 in997.6 mb 0.00 in0.0 mm 0.00 in/hr0.0 mm/hr 0.00 in0.0 mm
01:16 AM 52.7°F11.5°C 49.2°F9.6°C 88% Calm Calm 1.8 mph2.9 kmh 29.46 in997.6 mb 0.00 in0.0 mm 0.00 in/hr0.0 mm/hr 0.00 in0.0 mm
01:21 AM 52.7°F11.5°C 49.2°F9.6°C 88% Calm Calm 1.8 mph2.9 kmh 29.47 in998.0 mb 0.00 in0.0 mm 0.00 in/hr0.0 mm/hr 0.00 in0.0 mm
01:26 AM 52.5°F11.4°C 49.3°F9.6°C 89% Calm Calm -- 29.47 in998.0 mb 0.00 in0.0 mm 0.00 in/hr0.0 mm/hr 0.00 in0.0 mm
01:31 AM 52.5°F11.4°C 49.3°F9.6°C 89% Calm Calm -- 29.47 in998.0 mb 0.00 in0.0 mm 0.00 in/hr0.0 mm/hr 0.00 in0.0 mm
01:36 AM 52.5°F11.4°C 49.0°F9.4°C 88% Calm Calm -- 29.47 in998.0 mb 0.00 in0.0 mm 0.00 in/hr0.0 mm/hr 0.00 in0.0 mm
01:41 AM 52.5°F11.4°C 49.0°F9.4°C 88% Calm Calm -- 29.47 in998.0 mb 0.00 in0.0 mm 0.00 in/hr0.0 mm/hr 0.00 in0.0 mm
01:46 AM 52.5°F11.4°C 49.0°F9.4°C 88% Calm Calm -- 29.47 in998.0 mb 0.00 in0.0 mm 0.00 in/hr0.0 mm/hr 0.00 in0.0 mm
01:51 AM 52.5°F11.4°C 49.0°F9.4°C 88% Calm Calm -- 29.47 in998.0 mb 0.00 in0.0 mm 0.00 in/hr0.0 mm/hr 0.00 in0.0 mm
01:56 AM 52.3°F11.3°C 48.8°F9.3°C 88% Calm Calm -- 29.47 in998.0 mb 0.00 in0.0 mm 0.00 in/hr0.0 mm/hr 0.00 in0.0 mm
02:01 AM 52.3°F11.3°C 48.8°F9.3°C 88% Calm Calm -- 29.47 in998.0 mb 0.00 in0.0 mm 0.00 in/hr0.0 mm/hr 0.00 in0.0 mm
02:06 AM 52.3°F11.3°C 49.2°F9.6°C 89% Calm Calm -- 29.47 in998.0 mb 0.00 in0.0 mm 0.00 in/hr0.0 mm/hr 0.00 in0.0 mm
02:11 AM 52.3°F11.3°C 49.2°F9.6°C 89% Calm Calm -- 29.47 in998.0 mb 0.00 in0.0 mm 0.00 in/hr0.0 mm/hr 0.00 in0.0 mm
02:16 AM 52.3°F11.3°C 49.2°F9.6°C 89% Calm Calm -- 29.47 in998.0 mb 0.00 in0.0 mm 0.00 in/hr0.0 mm/hr 0.00 in0.0 mm
02:21 AM 52.3°F11.3°C 49.2°F9.6°C 89% Calm Calm -- 29.47 in998.0 mb 0.00 in0.0 mm 0.00 in/hr0.0 mm/hr 0.00 in0.0 mm
02:26 AM 52.3°F11.3°C 49.2°F9.6°C 89% Calm Calm -- 29.47 in998.0 mb 0.00 in0.0 mm 0.00 in/hr0.0 mm/hr 0.00 in0.0 mm
02:31 AM 52.3°F11.3°C 49.2°F9.6°C 89% Calm Calm -- 29.47 in998.0 mb 0.00 in0.0 mm 0.00 in/hr0.0 mm/hr 0.00 in0.0 mm
02:36 AM 52.3°F11.3°C 49.2°F9.6°C 89% Calm Calm -- 29.47 in998.0 mb 0.00 in0.0 mm 0.00 in/hr0.0 mm/hr 0.00 in0.0 mm
02:41 AM 52.2°F11.2°C 49.0°F9.4°C 89% Calm Calm -- 29.47 in998.0 mb 0.00 in0.0 mm 0.00 in/hr0.0 mm/hr 0.00 in0.0 mm
02:46 AM 52.2°F11.2°C 49.0°F9.4°C 89% Calm Calm -- 29.47 in998.0 mb 0.00 in0.0 mm 0.00 in/hr0.0 mm/hr 0.00 in0.0 mm
02:51 AM 52.2°F11.2°C 49.0°F9.4°C 89% Calm Calm -- 29.47 in998.0 mb 0.00 in0.0 mm 0.00 in/hr0.0 mm/hr 0.00 in0.0 mm
02:56 AM 52.2°F11.2°C 49.0°F9.4°C 89% Calm Calm -- 29.47 in998.0 mb 0.00 in0.0 mm 0.00 in/hr0.0 mm/hr 0.00 in0.0 mm
03:01 AM 52.2°F11.2°C 49.0°F9.4°C 89% Calm Calm -- 29.46 in997.6 mb 0.00 in0.0 mm 0.00 in/hr0.0 mm/hr 0.00 in0.0 mm
03:06 AM 52.0°F11.1°C 48.8°F9.3°C 89% Calm Calm -- 29.47 in998.0 mb 0.00 in0.0 mm 0.00 in/hr0.0 mm/hr 0.00 in0.0 mm
03:11 AM 52.0°F11.1°C 48.8°F9.3°C 89% Calm Calm -- 29.46 in997.6 mb 0.00 in0.0 mm 0.00 in/hr0.0 mm/hr 0.00 in0.0 mm
03:16 AM 52.0°F11.1°C 48.8°F9.3°C 89% Calm Calm -- 29.46 in997.6 mb 0.00 in0.0 mm 0.00 in/hr0.0 mm/hr 0.00 in0.0 mm
03:21 AM 52.0°F11.1°C 49.1°F9.5°C 90% Calm Calm -- 29.47 in998.0 mb 0.00 in0.0 mm 0.00 in/hr0.0 mm/hr 0.00 in0.0 mm
03:26 AM 52.0°F11.1°C 49.1°F9.5°C 90% Calm Calm -- 29.46 in997.6 mb 0.00 in0.0 mm 0.00 in/hr0.0 mm/hr 0.00 in0.0 mm
03:31 AM 52.0°F11.1°C 49.1°F9.5°C 90% Calm Calm -- 29.46 in997.6 mb 0.00 in0.0 mm 0.00 in/hr0.0 mm/hr 0.00 in0.0 mm
03:36 AM 52.0°F11.1°C 49.1°F9.5°C 90% Calm Calm -- 29.46 in997.6 mb 0.00 in0.0 mm 0.00 in/hr0.0 mm/hr 0.00 in0.0 mm
03:41 AM 52.0°F11.1°C 49.1°F9.5°C 90% Calm Calm -- 29.46 in997.6 mb 0.00 in0.0 mm 0.00 in/hr0.0 mm/hr 0.00 in0.0 mm
03:46 AM 52.0°F11.1°C 49.1°F9.5°C 90% Calm Calm -- 29.45 in997.3 mb 0.00 in0.0 mm 0.00 in/hr0.0 mm/hr 0.00 in0.0 mm
03:51 AM 52.0°F11.1°C 49.1°F9.5°C 90% Calm Calm -- 29.44 in997.0 mb 0.00 in0.0 mm 0.00 in/hr0.0 mm/hr 0.00 in0.0 mm
03:56 AM 51.8°F11.0°C 48.9°F9.4°C 90% Calm Calm -- 29.45 in997.3 mb 0.00 in0.0 mm 0.00 in/hr0.0 mm/hr 0.00 in0.0 mm
04:01 AM 51.8°F11.0°C 48.9°F9.4°C 90% 1.8 mph NW2.9 kmh NW 1.8 mph2.9 kmh 29.46 in997.6 mb 0.00 in0.0 mm 0.00 in/hr0.0 mm/hr 0.00 in0.0 mm
04:06 AM 52.0°F11.1°C 49.1°F9.5°C 90% Calm Calm 2.0 mph3.2 kmh 29.46 in997.6 mb 0.00 in0.0 mm 0.00 in/hr0.0 mm/hr 0.00 in0.0 mm
04:11 AM 52.0°F11.1°C 49.1°F9.5°C 90% Calm Calm 2.0 mph3.2 kmh 29.46 in997.6 mb 0.00 in0.0 mm 0.00 in/hr0.0 mm/hr 0.00 in0.0 mm
04:16 AM 52.0°F11.1°C 49.1°F9.5°C 90% Calm Calm -- 29.46 in997.6 mb 0.00 in0.0 mm 0.00 in/hr0.0 mm/hr 0.00 in0.0 mm
04:21 AM 52.0°F11.1°C 49.1°F9.5°C 90% Calm Calm -- 29.46 in997.6 mb 0.00 in0.0 mm 0.00 in/hr0.0 mm/hr 0.00 in0.0 mm
04:26 AM 52.0°F11.1°C 49.1°F9.5°C 90% Calm Calm -- 29.45 in997.3 mb 0.00 in0.0 mm 0.00 in/hr0.0 mm/hr 0.00 in0.0 mm
04:31 AM 52.0°F11.1°C 49.1°F9.5°C 90% Calm Calm -- 29.45 in997.3 mb 0.00 in0.0 mm 0.00 in/hr0.0 mm/hr 0.00 in0.0 mm
04:36 AM 52.0°F11.1°C 48.8°F9.3°C 89% Calm Calm -- 29.46 in997.6 mb 0.00 in0.0 mm 0.00 in/hr0.0 mm/hr 0.00 in0.0 mm
04:41 AM 51.8°F11.0°C 48.6°F9.2°C 89% Calm Calm -- 29.45 in997.3 mb 0.00 in0.0 mm 0.00 in/hr0.0 mm/hr 0.00 in0.0 mm
04:46 AM 51.6°F10.9°C 48.4°F9.1°C 89% 0.7 mph 1.1 kmh 0.7 mph1.1 kmh 29.45 in997.3 mb 0.00 in0.0 mm 0.00 in/hr0.0 mm/hr 0.00 in0.0 mm
04:51 AM 51.6°F10.9°C 48.4°F9.1°C 89% Calm Calm 0.7 mph1.1 kmh 29.45 in997.3 mb 0.00 in0.0 mm 0.00 in/hr0.0 mm/hr 0.00 in0.0 mm
04:56 AM 51.4°F10.8°C 48.6°F9.2°C 90% Calm Calm -- 29.45 in997.3 mb 0.00 in0.0 mm 0.00 in/hr0.0 mm/hr 0.00 in0.0 mm
05:01 AM 51.4°F10.8°C 48.6°F9.2°C 90% Calm Calm -- 29.44 in997.0 mb 0.00 in0.0 mm 0.00 in/hr0.0 mm/hr 0.00 in0.0 mm
05:06 AM 51.1°F10.6°C 48.2°F9.0°C 90% Calm Calm -- 29.44 in997.0 mb 0.00 in0.0 mm 0.00 in/hr0.0 mm/hr 0.00 in0.0 mm
05:11 AM 51.1°F10.6°C 48.5°F9.2°C 91% Calm Calm -- 29.45 in997.3 mb 0.00 in0.0 mm 0.00 in/hr0.0 mm/hr 0.00 in0.0 mm
05:16 AM 51.1°F10.6°C 48.5°F9.2°C 91% Calm Calm -- 29.45 in997.3 mb 0.02 in0.5 mm 0.24 in/hr6.1 mm/hr 0.02 in0.5 mm
05:21 AM 50.9°F10.5°C 48.3°F9.1°C 91% Calm Calm -- 29.46 in997.6 mb 0.02 in0.5 mm 0.00 in/hr0.0 mm/hr 0.02 in0.5 mm
05:26 AM 50.7°F10.4°C 48.1°F8.9°C 91% Calm Calm -- 29.45 in997.3 mb 0.02 in0.5 mm 0.00 in/hr0.0 mm/hr 0.02 in0.5 mm
05:31 AM 50.7°F10.4°C 48.1°F8.9°C 91% Calm Calm -- 29.45 in997.3 mb 0.02 in0.5 mm 0.00 in/hr0.0 mm/hr 0.02 in0.5 mm
05:36 AM 50.5°F10.3°C 47.9°F8.8°C 91% Calm Calm -- 29.45 in997.3 mb 0.02 in0.5 mm 0.00 in/hr0.0 mm/hr 0.02 in0.5 mm
05:41 AM 50.5°F10.3°C 47.9°F8.8°C 91% Calm Calm -- 29.46 in997.6 mb 0.02 in0.5 mm 0.00 in/hr0.0 mm/hr 0.02 in0.5 mm
05:47 AM 50.4°F10.2°C 48.1°F8.9°C 92% Calm Calm -- 29.46 in997.6 mb 0.02 in0.5 mm 0.00 in/hr0.0 mm/hr 0.02 in0.5 mm
05:51 AM 50.4°F10.2°C 48.1°F8.9°C 92% Calm Calm -- 29.45 in997.3 mb 0.02 in0.5 mm 0.00 in/hr0.0 mm/hr 0.02 in0.5 mm
05:56 AM 50.2°F10.1°C 47.9°F8.8°C 92% Calm Calm 1.8 mph2.9 kmh 29.46 in997.6 mb 0.02 in0.5 mm 0.00 in/hr0.0 mm/hr 0.02 in0.5 mm
06:02 AM 50.2°F10.1°C 47.9°F8.8°C 92% Calm Calm 1.8 mph2.9 kmh 29.45 in997.3 mb 0.02 in0.5 mm 0.00 in/hr0.0 mm/hr 0.02 in0.5 mm
06:06 AM 50.2°F10.1°C 47.9°F8.8°C 92% 2.5 mph NNW4.0 kmh NNW 3.6 mph5.8 kmh 29.45 in997.3 mb 0.02 in0.5 mm 0.00 in/hr0.0 mm/hr 0.02 in0.5 mm
06:11 AM 49.8°F9.9°C 47.5°F8.6°C 92% 2.2 mph NNE3.5 kmh NNE 3.6 mph5.8 kmh 29.45 in997.3 mb 0.02 in0.5 mm 0.00 in/hr0.0 mm/hr 0.02 in0.5 mm
06:16 AM 49.6°F9.8°C 47.4°F8.6°C 92% 2.1 mph NNW3.4 kmh NNW 3.6 mph5.8 kmh 29.44 in997.0 mb 0.00 in0.0 mm 0.00 in/hr0.0 mm/hr 0.02 in0.5 mm
06:22 AM 49.3°F9.6°C 47.0°F8.3°C 92% 2.1 mph N3.4 kmh N 3.6 mph5.8 kmh 29.44 in997.0 mb 0.00 in0.0 mm 0.00 in/hr0.0 mm/hr 0.02 in0.5 mm
06:26 AM 49.1°F9.5°C 46.9°F8.3°C 92% 2.3 mph N3.7 kmh N 3.6 mph5.8 kmh 29.44 in997.0 mb 0.00 in0.0 mm 0.00 in/hr0.0 mm/hr 0.02 in0.5 mm
06:31 AM 48.9°F9.4°C 46.7°F8.2°C 92% 1.1 mph NNE1.8 kmh NNE 3.1 mph5.0 kmh 29.44 in997.0 mb 0.02 in0.5 mm 0.24 in/hr6.1 mm/hr 0.04 in1.0 mm
06:36 AM 48.7°F9.3°C 46.5°F8.1°C 92% Calm Calm 2.5 mph4.0 kmh 29.44 in997.0 mb 0.02 in0.5 mm 0.00 in/hr0.0 mm/hr 0.04 in1.0 mm
06:41 AM 48.7°F9.3°C 46.5°F8.1°C 92% Calm Calm 2.0 mph3.2 kmh 29.44 in997.0 mb 0.02 in0.5 mm 0.00 in/hr0.0 mm/hr 0.04 in1.0 mm
06:46 AM 48.6°F9.2°C 46.4°F8.0°C 92% Calm Calm 4.7 mph7.6 kmh 29.44 in997.0 mb 0.02 in0.5 mm 0.00 in/hr0.0 mm/hr 0.04 in1.0 mm
06:51 AM 48.6°F9.2°C 46.4°F8.0°C 92% Calm Calm 4.7 mph7.6 kmh 29.44 in997.0 mb 0.02 in0.5 mm 0.00 in/hr0.0 mm/hr 0.04 in1.0 mm
06:57 AM 48.6°F9.2°C 46.4°F8.0°C 92% 1.6 mph NNE2.6 kmh NNE 1.6 mph2.6 kmh 29.44 in997.0 mb 0.02 in0.5 mm 0.00 in/hr0.0 mm/hr 0.04 in1.0 mm
07:02 AM 48.6°F9.2°C 46.4°F8.0°C 92% Calm Calm 2.0 mph3.2 kmh 29.45 in997.3 mb 0.02 in0.5 mm 0.00 in/hr0.0 mm/hr 0.04 in1.0 mm
07:07 AM 48.4°F9.1°C 46.2°F7.9°C 92% Calm Calm 2.0 mph3.2 kmh 29.45 in997.3 mb 0.02 in0.5 mm 0.00 in/hr0.0 mm/hr 0.04 in1.0 mm
07:11 AM 48.4°F9.1°C 46.2°F7.9°C 92% Calm Calm -- 29.45 in997.3 mb 0.02 in0.5 mm 0.00 in/hr0.0 mm/hr 0.04 in1.0 mm
07:16 AM 48.4°F9.1°C 46.2°F7.9°C 92% Calm Calm -- 29.46 in997.6 mb 0.04 in1.0 mm 0.24 in/hr6.1 mm/hr 0.06 in1.5 mm
07:22 AM 48.4°F9.1°C 46.2°F7.9°C 92% Calm Calm -- 29.46 in997.6 mb 0.04 in1.0 mm 0.00 in/hr0.0 mm/hr 0.06 in1.5 mm
07:27 AM 48.4°F9.1°C 46.5°F8.1°C 93% Calm Calm -- 29.46 in997.6 mb 0.04 in1.0 mm 0.00 in/hr0.0 mm/hr 0.06 in1.5 mm
07:32 AM 48.4°F9.1°C 46.5°F8.1°C 93% Calm Calm -- 29.45 in997.3 mb 0.02 in0.5 mm 0.00 in/hr0.0 mm/hr 0.06 in1.5 mm
07:37 AM 48.2°F9.0°C 46.3°F7.9°C 93% Calm Calm -- 29.46 in997.6 mb 0.04 in1.0 mm 0.24 in/hr6.1 mm/hr 0.08 in2.0 mm
07:41 AM 48.0°F8.9°C 46.1°F7.8°C 93% Calm Calm -- 29.46 in997.6 mb 0.04 in1.0 mm 0.00 in/hr0.0 mm/hr 0.08 in2.0 mm
07:47 AM 48.0°F8.9°C 46.3°F7.9°C 93% Calm Calm -- 29.45 in997.3 mb 0.04 in1.0 mm 0.00 in/hr0.0 mm/hr 0.08 in2.0 mm
07:51 AM 48.0°F8.9°C 46.1°F7.8°C 93% Calm Calm -- 29.45 in997.3 mb 0.04 in1.0 mm 0.00 in/hr0.0 mm/hr 0.08 in2.0 mm
07:57 AM 48.0°F8.9°C 46.1°F7.8°C 93% Calm Calm -- 29.46 in997.6 mb 0.04 in1.0 mm 0.00 in/hr0.0 mm/hr 0.08 in2.0 mm
08:02 AM 48.0°F8.9°C 46.1°F7.8°C 93% Calm Calm -- 29.45 in997.3 mb 0.04 in1.0 mm 0.00 in/hr0.0 mm/hr 0.08 in2.0 mm
08:07 AM 48.2°F9.0°C 46.3°F7.9°C 93% Calm Calm -- 29.46 in997.6 mb 0.04 in1.0 mm 0.00 in/hr0.0 mm/hr 0.08 in2.0 mm
08:12 AM 48.4°F9.1°C 46.5°F8.1°C 93% Calm Calm -- 29.45 in997.3 mb 0.04 in1.0 mm 0.00 in/hr0.0 mm/hr 0.08 in2.0 mm
08:17 AM 48.4°F9.1°C 46.7°F8.2°C 94% Calm Calm -- 29.46 in997.6 mb 0.02 in0.5 mm 0.00 in/hr0.0 mm/hr 0.08 in2.0 mm
08:22 AM 48.6°F9.2°C 46.9°F8.3°C 94% Calm Calm -- 29.45 in997.3 mb 0.02 in0.5 mm 0.00 in/hr0.0 mm/hr 0.08 in2.0 mm
08:26 AM 48.6°F9.2°C 46.9°F8.3°C 94% Calm Calm -- 29.46 in997.6 mb 0.02 in0.5 mm 0.00 in/hr0.0 mm/hr 0.08 in2.0 mm
08:32 AM 48.6°F9.2°C 46.9°F8.3°C 94% Calm Calm -- 29.45 in997.3 mb 0.02 in0.5 mm 0.00 in/hr0.0 mm/hr 0.08 in2.0 mm
08:37 AM 48.6°F9.2°C 46.9°F8.3°C 94% Calm Calm -- 29.45 in997.3 mb 0.00 in0.0 mm 0.00 in/hr0.0 mm/hr 0.08 in2.0 mm
08:42 AM 48.6°F9.2°C 46.9°F8.3°C 94% Calm Calm -- 29.45 in997.3 mb 0.00 in0.0 mm 0.00 in/hr0.0 mm/hr 0.08 in2.0 mm
08:47 AM 48.6°F9.2°C 46.9°F8.3°C 94% Calm Calm -- 29.45 in997.3 mb 0.00 in0.0 mm 0.00 in/hr0.0 mm/hr 0.08 in2.0 mm
08:52 AM 48.7°F9.3°C 47.1°F8.4°C 94% Calm Calm -- 29.45 in997.3 mb 0.00 in0.0 mm 0.00 in/hr0.0 mm/hr 0.08 in2.0 mm
08:56 AM 48.7°F9.3°C 47.1°F8.4°C 94% Calm Calm -- 29.46 in997.6 mb 0.00 in0.0 mm 0.00 in/hr0.0 mm/hr 0.08 in2.0 mm
09:02 AM 48.6°F9.2°C 46.9°F8.3°C 94% Calm Calm -- 29.46 in997.6 mb 0.00 in0.0 mm 0.00 in/hr0.0 mm/hr 0.08 in2.0 mm
09:07 AM 48.6°F9.2°C 46.9°F8.3°C 94% Calm Calm 2.9 mph4.7 kmh 29.45 in997.3 mb 0.00 in0.0 mm 0.00 in/hr0.0 mm/hr 0.08 in2.0 mm
09:12 AM 48.6°F9.2°C 46.9°F8.3°C 94% Calm Calm 2.9 mph4.7 kmh 29.45 in997.3 mb 0.00 in0.0 mm 0.00 in/hr0.0 mm/hr 0.08 in2.0 mm
09:17 AM 48.6°F9.2°C 46.9°F8.3°C 94% Calm Calm -- 29.45 in997.3 mb 0.00 in0.0 mm 0.00 in/hr0.0 mm/hr 0.08 in2.0 mm
09:22 AM 48.6°F9.2°C 46.9°F8.3°C 94% Calm Calm -- 29.46 in997.6 mb 0.00 in0.0 mm 0.00 in/hr0.0 mm/hr 0.08 in2.0 mm
09:27 AM 48.4°F9.1°C 46.7°F8.2°C 94% Calm Calm -- 29.46 in997.6 mb 0.00 in0.0 mm 0.00 in/hr0.0 mm/hr 0.08 in2.0 mm
09:32 AM 48.6°F9.2°C 46.9°F8.3°C 94% Calm Calm -- 29.46 in997.6 mb 0.00 in0.0 mm 0.00 in/hr0.0 mm/hr 0.08 in2.0 mm
09:37 AM 48.2°F9.0°C 46.6°F8.1°C 94% Calm Calm -- 29.45 in997.3 mb 0.02 in0.5 mm 0.24 in/hr6.1 mm/hr 0.10 in2.5 mm
09:42 AM 48.0°F8.9°C 46.4°F8.0°C 94% Calm Calm 2.5 mph4.0 kmh 29.44 in997.0 mb 0.02 in0.5 mm 0.00 in/hr0.0 mm/hr 0.10 in2.5 mm
09:47 AM 48.0°F8.9°C 46.4°F8.0°C 94% 1.6 mph NNW2.6 kmh NNW 2.5 mph4.0 kmh 29.44 in997.0 mb 0.02 in0.5 mm 0.00 in/hr0.0 mm/hr 0.10 in2.5 mm
09:52 AM 48.0°F8.9°C 46.4°F8.0°C 94% Calm Calm 1.6 mph2.6 kmh 29.45 in997.3 mb 0.02 in0.5 mm 0.00 in/hr0.0 mm/hr 0.10 in2.5 mm
09:57 AM 48.0°F8.9°C 46.4°F8.0°C 94% 1.6 mph 2.6 kmh 1.6 mph2.6 kmh 29.45 in997.3 mb 0.02 in0.5 mm 0.00 in/hr0.0 mm/hr 0.10 in2.5 mm
10:02 AM 48.0°F8.9°C 46.4°F8.0°C 94% 1.4 mph NNW2.3 kmh NNW 1.6 mph2.6 kmh 29.44 in997.0 mb 0.02 in0.5 mm 0.00 in/hr0.0 mm/hr 0.10 in2.5 mm
10:07 AM 48.0°F8.9°C 46.4°F8.0°C 94% Calm Calm 1.6 mph2.6 kmh 29.44 in997.0 mb 0.02 in0.5 mm 0.00 in/hr0.0 mm/hr 0.10 in2.5 mm
10:12 AM 48.0°F8.9°C 46.4°F8.0°C 94% Calm Calm 1.6 mph2.6 kmh 29.44 in997.0 mb 0.02 in0.5 mm 0.00 in/hr0.0 mm/hr 0.10 in2.5 mm
10:17 AM 47.7°F8.7°C 46.0°F7.8°C 93% 1.6 mph 2.6 kmh 2.2 mph3.5 kmh 29.44 in997.0 mb 0.02 in0.5 mm 0.00 in/hr0.0 mm/hr 0.10 in2.5 mm
10:22 AM 47.7°F8.7°C 45.8°F7.7°C 93% Calm Calm 2.2 mph3.5 kmh 29.44 in997.0 mb 0.02 in0.5 mm 0.00 in/hr0.0 mm/hr 0.10 in2.5 mm
10:27 AM 47.7°F8.7°C 45.8°F7.7°C 93% 2.0 mph NNW3.2 kmh NNW 2.0 mph3.2 kmh 29.44 in997.0 mb 0.02 in0.5 mm 0.00 in/hr0.0 mm/hr 0.10 in2.5 mm
10:32 AM 47.5°F8.6°C 45.6°F7.6°C 93% Calm Calm 2.9 mph4.7 kmh 29.44 in997.0 mb 0.02 in0.5 mm 0.00 in/hr0.0 mm/hr 0.12 in3.0 mm
10:37 AM 47.5°F8.6°C 45.6°F7.6°C 93% Calm Calm 2.9 mph4.7 kmh 29.43 in996.6 mb 0.02 in0.5 mm 0.00 in/hr0.0 mm/hr 0.12 in3.0 mm
10:42 AM 47.5°F8.6°C 45.9°F7.7°C 94% Calm Calm -- 29.44 in997.0 mb 0.02 in0.5 mm 0.00 in/hr0.0 mm/hr 0.12 in3.0 mm
10:47 AM 47.3°F8.5°C 45.7°F7.6°C 94% Calm Calm 1.6 mph2.6 kmh 29.43 in996.6 mb 0.02 in0.5 mm 0.00 in/hr0.0 mm/hr 0.12 in3.0 mm
10:52 AM 47.3°F8.5°C 45.7°F7.6°C 94% Calm Calm 1.6 mph2.6 kmh 29.42 in996.3 mb 0.02 in0.5 mm 0.00 in/hr0.0 mm/hr 0.12 in3.0 mm
10:57 AM 47.3°F8.5°C 45.7°F7.6°C 94% 1.6 mph NNE2.6 kmh NNE 2.5 mph4.0 kmh 29.42 in996.3 mb 0.02 in0.5 mm 0.00 in/hr0.0 mm/hr 0.12 in3.0 mm
11:02 AM 47.3°F8.5°C 45.7°F7.6°C 94% 1.8 mph 2.9 kmh 2.5 mph4.0 kmh 29.41 in995.9 mb 0.02 in0.5 mm 0.00 in/hr0.0 mm/hr 0.12 in3.0 mm
11:07 AM 47.3°F8.5°C 45.7°F7.6°C 94% 2.8 mph N4.5 kmh N 4.0 mph6.4 kmh 29.41 in995.9 mb 0.02 in0.5 mm 0.00 in/hr0.0 mm/hr 0.12 in3.0 mm
11:12 AM 47.3°F8.5°C 45.7°F7.6°C 94% 1.6 mph 2.6 kmh 4.0 mph6.4 kmh 29.40 in995.6 mb 0.02 in0.5 mm 0.00 in/hr0.0 mm/hr 0.12 in3.0 mm
11:17 AM 47.1°F8.4°C 45.5°F7.5°C 94% 1.6 mph NNE2.6 kmh NNE 2.5 mph4.0 kmh 29.40 in995.6 mb 0.02 in0.5 mm 0.00 in/hr0.0 mm/hr 0.12 in3.0 mm
11:22 AM 47.1°F8.4°C 45.5°F7.5°C 94% 2.8 mph N4.5 kmh N 3.8 mph6.1 kmh 29.39 in995.3 mb 0.02 in0.5 mm 0.00 in/hr0.0 mm/hr 0.12 in3.0 mm
11:27 AM 46.9°F8.3°C 45.3°F7.4°C 94% 2.2 mph 3.5 kmh 3.8 mph6.1 kmh 29.39 in995.3 mb 0.00 in0.0 mm 0.00 in/hr0.0 mm/hr 0.12 in3.0 mm
11:32 AM 46.9°F8.3°C 45.3°F7.4°C 94% 2.0 mph NNE3.2 kmh NNE 3.1 mph5.0 kmh 29.39 in995.3 mb 0.02 in0.5 mm 0.24 in/hr6.1 mm/hr 0.14 in3.6 mm
11:37 AM 46.9°F8.3°C 45.3°F7.4°C 94% 0.7 mph 1.1 kmh 2.2 mph3.5 kmh 29.39 in995.3 mb 0.02 in0.5 mm 0.00 in/hr0.0 mm/hr 0.14 in3.6 mm
11:42 AM 46.9°F8.3°C 45.3°F7.4°C 94% Calm Calm 2.0 mph3.2 kmh 29.39 in995.3 mb 0.02 in0.5 mm 0.00 in/hr0.0 mm/hr 0.14 in3.6 mm
11:47 AM 46.9°F8.3°C 45.3°F7.4°C 94% Calm Calm 3.4 mph5.5 kmh 29.39 in995.3 mb 0.02 in0.5 mm 0.00 in/hr0.0 mm/hr 0.14 in3.6 mm
11:52 AM 46.9°F8.3°C 45.3°F7.4°C 94% 0.9 mph 1.4 kmh 3.4 mph5.5 kmh 29.38 in994.9 mb 0.04 in1.0 mm 0.24 in/hr6.1 mm/hr 0.16 in4.1 mm
11:57 AM 46.9°F8.3°C 45.3°F7.4°C 94% 1.9 mph NNW3.1 kmh NNW 2.0 mph3.2 kmh 29.38 in994.9 mb 0.04 in1.0 mm 0.00 in/hr0.0 mm/hr 0.16 in4.1 mm
12:02 PM 46.9°F8.3°C 45.1°F7.3°C 94% Calm Calm 2.0 mph3.2 kmh 29.38 in994.9 mb 0.04 in1.0 mm 0.00 in/hr0.0 mm/hr 0.16 in4.1 mm
12:07 PM 46.9°F8.3°C 45.3°F7.4°C 94% Calm Calm -- 29.38 in994.9 mb 0.06 in1.5 mm 0.24 in/hr6.1 mm/hr 0.18 in4.6 mm
12:12 PM 46.9°F8.3°C 45.3°F7.4°C 94% 1.9 mph N3.1 kmh N 2.5 mph4.0 kmh 29.38 in994.9 mb 0.06 in1.5 mm 0.00 in/hr0.0 mm/hr 0.18 in4.6 mm
12:17 PM 46.6°F8.1°C 45.0°F7.2°C 94% 2.1 mph NNW3.4 kmh NNW 2.9 mph4.7 kmh 29.38 in994.9 mb 0.06 in1.5 mm 0.00 in/hr0.0 mm/hr 0.18 in4.6 mm
12:22 PM 46.6°F8.1°C 45.0°F7.2°C 94% 3.1 mph 5.0 kmh 3.1 mph5.0 kmh 29.37 in994.6 mb 0.08 in2.0 mm 0.24 in/hr6.1 mm/hr 0.20 in5.1 mm
12:27 PM 46.8°F8.2°C 45.1°F7.3°C 94% Calm Calm 3.1 mph5.0 kmh 29.37 in994.6 mb 0.08 in2.0 mm 0.00 in/hr0.0 mm/hr 0.20 in5.1 mm
12:32 PM 46.8°F8.2°C 45.1°F7.3°C 94% Calm Calm -- 29.36 in994.2 mb 0.06 in1.5 mm 0.00 in/hr0.0 mm/hr 0.20 in5.1 mm
12:37 PM 46.8°F8.2°C 45.1°F7.3°C 94% 2.5 mph 4.0 kmh 2.5 mph4.0 kmh 29.37 in994.6 mb 0.08 in2.0 mm 0.24 in/hr6.1 mm/hr 0.22 in5.6 mm
12:42 PM 46.8°F8.2°C 45.1°F7.3°C 94% Calm Calm 2.5 mph4.0 kmh 29.36 in994.2 mb 0.08 in2.0 mm 0.00 in/hr0.0 mm/hr 0.22 in5.6 mm
12:47 PM 46.8°F8.2°C 45.4°F7.4°C 95% 2.5 mph 4.0 kmh 2.5 mph4.0 kmh 29.36 in994.2 mb 0.06 in1.5 mm 0.00 in/hr0.0 mm/hr 0.22 in5.6 mm
12:52 PM 46.8°F8.2°C 45.4°F7.4°C 95% Calm Calm 2.5 mph4.0 kmh 29.36 in994.2 mb 0.08 in2.0 mm 0.24 in/hr6.1 mm/hr 0.24 in6.1 mm
12:57 PM 46.9°F8.3°C 45.6°F7.6°C 95% 2.1 mph NNW3.4 kmh NNW 3.1 mph5.0 kmh 29.35 in993.9 mb 0.08 in2.0 mm 0.00 in/hr0.0 mm/hr 0.24 in6.1 mm
01:02 PM 46.9°F8.3°C 45.6°F7.6°C 95% Calm Calm 3.1 mph5.0 kmh 29.35 in993.9 mb 0.08 in2.0 mm 0.00 in/hr0.0 mm/hr 0.24 in6.1 mm
01:07 PM 46.9°F8.3°C 45.6°F7.6°C 95% 1.8 mph NNE2.9 kmh NNE 1.8 mph2.9 kmh 29.35 in993.9 mb 0.06 in1.5 mm 0.00 in/hr0.0 mm/hr 0.24 in6.1 mm
01:12 PM 46.9°F8.3°C 45.6°F7.6°C 95% 2.3 mph N3.7 kmh N 2.7 mph4.3 kmh 29.34 in993.6 mb 0.08 in2.0 mm 0.24 in/hr6.1 mm/hr 0.26 in6.6 mm
01:17 PM 46.9°F8.3°C 45.6°F7.6°C 95% 1.6 mph 2.6 kmh 2.7 mph4.3 kmh 29.34 in993.6 mb 0.06 in1.5 mm 0.00 in/hr0.0 mm/hr 0.26 in6.6 mm
01:22 PM 46.9°F8.3°C 45.6°F7.6°C 95% Calm Calm 2.9 mph4.7 kmh 29.34 in993.6 mb 0.06 in1.5 mm 0.00 in/hr0.0 mm/hr 0.26 in6.6 mm
01:27 PM 47.1°F8.4°C 45.8°F7.7°C 95% 1.6 mph 2.6 kmh 2.9 mph4.7 kmh 29.34 in993.6 mb 0.06 in1.5 mm 0.00 in/hr0.0 mm/hr 0.26 in6.6 mm
01:32 PM 47.1°F8.4°C 45.8°F7.7°C 95% 1.5 mph NNW2.4 kmh NNW 1.8 mph2.9 kmh 29.33 in993.2 mb 0.08 in2.0 mm 0.24 in/hr6.1 mm/hr 0.28 in7.1 mm
01:37 PM 47.1°F8.4°C 45.8°F7.7°C 95% Calm Calm 2.0 mph3.2 kmh 29.33 in993.2 mb 0.06 in1.5 mm 0.00 in/hr0.0 mm/hr 0.28 in7.1 mm
01:42 PM 47.1°F8.4°C 45.8°F7.7°C 95% 0.9 mph NNW1.4 kmh NNW 3.1 mph5.0 kmh 29.33 in993.2 mb 0.06 in1.5 mm 0.00 in/hr0.0 mm/hr 0.28 in7.1 mm
01:47 PM 46.9°F8.3°C 45.6°F7.6°C 95% 4.0 mph N6.4 kmh N 5.8 mph9.3 kmh 29.33 in993.2 mb 0.06 in1.5 mm 0.00 in/hr0.0 mm/hr 0.30 in7.6 mm
01:52 PM 46.8°F8.2°C 45.4°F7.4°C 95% 2.9 mph N4.7 kmh N 5.8 mph9.3 kmh 29.32 in992.9 mb 0.06 in1.5 mm 0.00 in/hr0.0 mm/hr 0.30 in7.6 mm
01:57 PM 46.6°F8.1°C 45.2°F7.3°C 95% 2.2 mph N3.5 kmh N 4.9 mph7.9 kmh 29.31 in992.6 mb 0.08 in2.0 mm 0.24 in/hr6.1 mm/hr 0.32 in8.1 mm
02:02 PM 46.6°F8.1°C 45.2°F7.3°C 95% 2.7 mph N4.3 kmh N 4.9 mph7.9 kmh 29.31 in992.6 mb 0.08 in2.0 mm 0.00 in/hr0.0 mm/hr 0.32 in8.1 mm
02:07 PM 46.4°F8.0°C 45.0°F7.2°C 95% 1.6 mph 2.6 kmh 3.1 mph5.0 kmh 29.31 in992.6 mb 0.08 in2.0 mm 0.00 in/hr0.0 mm/hr 0.32 in8.1 mm
02:12 PM 46.4°F8.0°C 45.0°F7.2°C 95% Calm Calm 2.2 mph3.5 kmh 29.31 in992.6 mb 0.06 in1.5 mm 0.00 in/hr0.0 mm/hr 0.32 in8.1 mm
02:17 PM 46.6°F8.1°C 45.2°F7.3°C 95% Calm Calm 1.6 mph2.6 kmh 29.31 in992.6 mb 0.06 in1.5 mm 0.00 in/hr0.0 mm/hr 0.32 in8.1 mm
02:22 PM 46.6°F8.1°C 45.2°F7.3°C 95% 2.3 mph NNW3.7 kmh NNW 3.4 mph5.5 kmh 29.29 in991.9 mb 0.06 in1.5 mm 0.00 in/hr0.0 mm/hr 0.32 in8.1 mm
02:27 PM 46.4°F8.0°C 45.0°F7.2°C 95% 1.8 mph NNW2.9 kmh NNW 3.6 mph5.8 kmh 29.29 in991.9 mb 0.06 in1.5 mm 0.00 in/hr0.0 mm/hr 0.34 in8.6 mm
02:32 PM 46.2°F7.9°C 44.9°F7.2°C 95% 2.3 mph NNW3.7 kmh NNW 3.6 mph5.8 kmh 29.29 in991.9 mb 0.06 in1.5 mm 0.00 in/hr0.0 mm/hr 0.34 in8.6 mm
02:37 PM 46.2°F7.9°C 44.9°F7.2°C 95% 1.1 mph 1.8 kmh 2.7 mph4.3 kmh 29.29 in991.9 mb 0.06 in1.5 mm 0.00 in/hr0.0 mm/hr 0.34 in8.6 mm
02:42 PM 46.2°F7.9°C 44.9°F7.2°C 95% 1.4 mph NE2.3 kmh NE 2.7 mph4.3 kmh 29.28 in991.5 mb 0.06 in1.5 mm 0.00 in/hr0.0 mm/hr 0.36 in9.1 mm
02:47 PM 46.0°F7.8°C 44.7°F7.1°C 95% 2.9 mph NNW4.7 kmh NNW 3.1 mph5.0 kmh 29.28 in991.5 mb 0.06 in1.5 mm 0.00 in/hr0.0 mm/hr 0.36 in9.1 mm
02:52 PM 46.0°F7.8°C 44.7°F7.1°C 95% 2.2 mph 3.5 kmh 3.1 mph5.0 kmh 29.28 in991.5 mb 0.06 in1.5 mm 0.00 in/hr0.0 mm/hr 0.36 in9.1 mm
02:57 PM 46.0°F7.8°C 44.7°F7.1°C 95% 2.3 mph NNW3.7 kmh NNW 2.7 mph4.3 kmh 29.27 in991.2 mb 0.06 in1.5 mm 0.00 in/hr0.0 mm/hr 0.38 in9.7 mm
03:02 PM 46.0°F7.8°C 44.7°F7.1°C 95% 3.9 mph N6.3 kmh N 8.3 mph13.4 kmh 29.27 in991.2 mb 0.06 in1.5 mm 0.00 in/hr0.0 mm/hr 0.38 in9.7 mm
03:07 PM 46.0°F7.8°C 44.7°F7.1°C 95% 2.6 mph N4.2 kmh N 8.3 mph13.4 kmh 29.27 in991.2 mb 0.08 in2.0 mm 0.24 in/hr6.1 mm/hr 0.41 in10.4 mm
03:12 PM 46.0°F7.8°C 44.7°F7.1°C 95% 2.3 mph N3.7 kmh N 3.8 mph6.1 kmh 29.27 in991.2 mb 0.08 in2.0 mm 0.00 in/hr0.0 mm/hr 0.41 in10.4 mm
03:17 PM 46.0°F7.8°C 44.7°F7.1°C 95% 2.2 mph N3.5 kmh N 2.5 mph4.0 kmh 29.27 in991.2 mb 0.08 in2.0 mm 0.00 in/hr0.0 mm/hr 0.41 in10.4 mm
03:22 PM 46.0°F7.8°C 44.7°F7.1°C 95% 2.2 mph N3.5 kmh N 2.9 mph4.7 kmh 29.26 in990.9 mb 0.08 in2.0 mm 0.00 in/hr0.0 mm/hr 0.43 in10.9 mm
03:27 PM 46.0°F7.8°C 44.7°F7.1°C 95% 2.3 mph N3.7 kmh N 4.5 mph7.2 kmh 29.26 in990.9 mb 0.08 in2.0 mm 0.00 in/hr0.0 mm/hr 0.43 in10.9 mm
03:32 PM 46.0°F7.8°C 44.7°F7.1°C 95% 1.5 mph 2.4 kmh 4.5 mph7.2 kmh 29.26 in990.9 mb 0.10 in2.5 mm 0.24 in/hr6.1 mm/hr 0.45 in11.4 mm
03:37 PM 45.9°F7.7°C 44.5°F6.9°C 95% 1.2 mph 1.9 kmh 2.0 mph3.2 kmh 29.25 in990.5 mb 0.08 in2.0 mm 0.00 in/hr0.0 mm/hr 0.45 in11.4 mm
03:42 PM 45.7°F7.6°C 44.3°F6.8°C 95% 3.0 mph 4.8 kmh 3.1 mph5.0 kmh 29.25 in990.5 mb 0.10 in2.5 mm 0.24 in/hr6.1 mm/hr 0.47 in11.9 mm
03:47 PM 45.7°F7.6°C 44.3°F6.8°C 95% 2.5 mph 4.0 kmh 4.0 mph6.4 kmh 29.25 in990.5 mb 0.10 in2.5 mm 0.00 in/hr0.0 mm/hr 0.47 in11.9 mm
03:52 PM 45.5°F7.5°C 44.1°F6.7°C 95% 2.4 mph N3.9 kmh N 4.0 mph6.4 kmh 29.25 in990.5 mb 0.12 in3.0 mm 0.24 in/hr6.1 mm/hr 0.49 in12.4 mm
03:57 PM 45.5°F7.5°C 44.1°F6.7°C 95% 2.4 mph N3.9 kmh N 4.9 mph7.9 kmh 29.25 in990.5 mb 0.10 in2.5 mm 0.00 in/hr0.0 mm/hr 0.49 in12.4 mm
04:02 PM 45.5°F7.5°C 44.1°F6.7°C 95% 1.5 mph N2.4 kmh N 4.9 mph7.9 kmh 29.25 in990.5 mb 0.10 in2.5 mm 0.00 in/hr0.0 mm/hr 0.51 in13.0 mm
04:07 PM 45.5°F7.5°C 44.1°F6.7°C 95% 2.1 mph N3.4 kmh N 3.6 mph5.8 kmh 29.24 in990.2 mb 0.12 in3.0 mm 0.24 in/hr6.1 mm/hr 0.53 in13.5 mm
04:12 PM 45.5°F7.5°C 44.1°F6.7°C 95% 1.8 mph 2.9 kmh 3.6 mph5.8 kmh 29.25 in990.5 mb 0.12 in3.0 mm 0.00 in/hr0.0 mm/hr 0.53 in13.5 mm
04:17 PM 45.5°F7.5°C 44.1°F6.7°C 95% 1.6 mph NNE2.6 kmh NNE 3.8 mph6.1 kmh 29.24 in990.2 mb 0.12 in3.0 mm 0.00 in/hr0.0 mm/hr 0.55 in14.0 mm
04:22 PM 45.5°F7.5°C 44.1°F6.7°C 95% Calm Calm 3.8 mph6.1 kmh 29.24 in990.2 mb 0.14 in3.6 mm 0.24 in/hr6.1 mm/hr 0.57 in14.5 mm
04:27 PM 45.5°F7.5°C 44.1°F6.7°C 95% 2.0 mph NNW3.2 kmh NNW 2.5 mph4.0 kmh 29.24 in990.2 mb 0.14 in3.6 mm 0.00 in/hr0.0 mm/hr 0.59 in15.0 mm
04:32 PM 45.5°F7.5°C 44.1°F6.7°C 95% 2.2 mph N3.5 kmh N 3.6 mph5.8 kmh 29.24 in990.2 mb 0.16 in4.1 mm 0.24 in/hr6.1 mm/hr 0.61 in15.5 mm
04:37 PM 45.3°F7.4°C 44.0°F6.7°C 95% 1.5 mph N2.4 kmh N 3.6 mph5.8 kmh 29.24 in990.2 mb 0.16 in4.1 mm 0.00 in/hr0.0 mm/hr 0.61 in15.5 mm
04:42 PM 45.3°F7.4°C 44.0°F6.7°C 95% 2.1 mph N3.4 kmh N 6.3 mph10.1 kmh 29.24 in990.2 mb 0.16 in4.1 mm 0.00 in/hr0.0 mm/hr 0.63 in16.0 mm
04:47 PM 45.3°F7.4°C 44.0°F6.7°C 95% 2.7 mph N4.3 kmh N 6.3 mph10.1 kmh 29.24 in990.2 mb 0.18 in4.6 mm 0.24 in/hr6.1 mm/hr 0.65 in16.5 mm
04:52 PM 45.3°F7.4°C 44.0°F6.7°C 95% 1.9 mph N3.1 kmh N 4.3 mph6.9 kmh 29.23 in989.8 mb 0.16 in4.1 mm 0.00 in/hr0.0 mm/hr 0.65 in16.5 mm
04:57 PM 45.3°F7.4°C 44.0°F6.7°C 95% 1.3 mph 2.1 kmh 4.0 mph6.4 kmh 29.23 in989.8 mb 0.16 in4.1 mm 0.00 in/hr0.0 mm/hr 0.67 in17.0 mm
05:02 PM 45.3°F7.4°C 44.0°F6.7°C 95% 2.2 mph 3.5 kmh 2.9 mph4.7 kmh 29.23 in989.8 mb 0.18 in4.6 mm 0.02 in/hr0.5 mm/hr 0.69 in17.5 mm
05:07 PM 45.3°F7.4°C 44.0°F6.7°C 95% 2.1 mph NNE3.4 kmh NNE 4.3 mph6.9 kmh 29.22 in989.5 mb 0.16 in4.1 mm 0.00 in/hr0.0 mm/hr 0.69 in17.5 mm
05:12 PM 45.3°F7.4°C 44.0°F6.7°C 95% 1.1 mph N1.8 kmh N 4.3 mph6.9 kmh 29.22 in989.5 mb 0.16 in4.1 mm 0.00 in/hr0.0 mm/hr 0.69 in17.5 mm
05:17 PM 45.3°F7.4°C 44.0°F6.7°C 95% 2.5 mph N4.0 kmh N 4.7 mph7.6 kmh 29.22 in989.5 mb 0.16 in4.1 mm 0.00 in/hr0.0 mm/hr 0.71 in18.0 mm
05:22 PM 45.3°F7.4°C 44.0°F6.7°C 95% 1.6 mph N2.6 kmh N 4.7 mph7.6 kmh 29.21 in989.2 mb 0.16 in4.1 mm 0.00 in/hr0.0 mm/hr 0.73 in18.5 mm
05:27 PM 45.1°F7.3°C 43.8°F6.6°C 95% 2.6 mph N4.2 kmh N 4.3 mph6.9 kmh 29.21 in989.2 mb 0.14 in3.6 mm 0.00 in/hr0.0 mm/hr 0.73 in18.5 mm
05:32 PM 45.1°F7.3°C 43.8°F6.6°C 95% 2.4 mph N3.9 kmh N 4.3 mph6.9 kmh 29.21 in989.2 mb 0.12 in3.0 mm 0.00 in/hr0.0 mm/hr 0.73 in18.5 mm
05:37 PM 45.1°F7.3°C 43.8°F6.6°C 95% Calm Calm 3.4 mph5.5 kmh 29.21 in989.2 mb 0.12 in3.0 mm 0.00 in/hr0.0 mm/hr 0.75 in19.1 mm
05:42 PM 45.1°F7.3°C 44.1°F6.7°C 96% 2.0 mph N3.2 kmh N 4.5 mph7.2 kmh 29.21 in989.2 mb 0.10 in2.5 mm 0.00 in/hr0.0 mm/hr 0.75 in19.1 mm
05:47 PM 45.3°F7.4°C 44.2°F6.8°C 96% 1.7 mph NE2.7 kmh NE 4.5 mph7.2 kmh 29.21 in989.2 mb 0.10 in2.5 mm 0.00 in/hr0.0 mm/hr 0.75 in19.1 mm
05:52 PM 45.1°F7.3°C 44.1°F6.7°C 96% 2.4 mph NNE3.9 kmh NNE 3.8 mph6.1 kmh 29.20 in988.8 mb 0.12 in3.0 mm 0.24 in/hr6.1 mm/hr 0.77 in19.6 mm
05:57 PM 45.1°F7.3°C 44.1°F6.7°C 96% 2.5 mph N4.0 kmh N 3.4 mph5.5 kmh 29.20 in988.8 mb 0.10 in2.5 mm 0.00 in/hr0.0 mm/hr 0.77 in19.6 mm
06:02 PM 45.1°F7.3°C 44.1°F6.7°C 96% 3.4 mph N5.5 kmh N 5.6 mph9.0 kmh 29.20 in988.8 mb 0.08 in2.0 mm 0.00 in/hr0.0 mm/hr 0.77 in19.6 mm
06:07 PM 45.3°F7.4°C 44.2°F6.8°C 96% 1.9 mph 3.1 kmh 6.7 mph10.8 kmh 29.20 in988.8 mb 0.10 in2.5 mm 0.24 in/hr6.1 mm/hr 0.79 in20.1 mm
06:12 PM 45.1°F7.3°C 44.1°F6.7°C 96% 2.1 mph N3.4 kmh N 6.7 mph10.8 kmh 29.20 in988.8 mb 0.08 in2.0 mm 0.00 in/hr0.0 mm/hr 0.79 in20.1 mm
06:17 PM 45.1°F7.3°C 44.1°F6.7°C 96% 2.4 mph N3.9 kmh N 4.9 mph7.9 kmh 29.20 in988.8 mb 0.06 in1.5 mm 0.00 in/hr0.0 mm/hr 0.79 in20.1 mm
06:22 PM 45.3°F7.4°C 44.2°F6.8°C 96% 2.0 mph NNW3.2 kmh NNW 3.4 mph5.5 kmh 29.20 in988.8 mb 0.06 in1.5 mm 0.00 in/hr0.0 mm/hr 0.79 in20.1 mm
06:27 PM 45.1°F7.3°C 44.1°F6.7°C 96% 1.4 mph 2.3 kmh 3.8 mph6.1 kmh 29.19 in988.5 mb 0.08 in2.0 mm 0.24 in/hr6.1 mm/hr 0.81 in20.6 mm
06:32 PM 45.3°F7.4°C 44.2°F6.8°C 96% 2.5 mph N4.0 kmh N 6.3 mph10.1 kmh 29.19 in988.5 mb 0.08 in2.0 mm 0.00 in/hr0.0 mm/hr 0.81 in20.6 mm
06:37 PM 45.3°F7.4°C 44.2°F6.8°C 96% 2.5 mph 4.0 kmh 6.3 mph10.1 kmh 29.19 in988.5 mb 0.06 in1.5 mm 0.00 in/hr0.0 mm/hr 0.81 in20.6 mm
06:42 PM 45.3°F7.4°C 44.2°F6.8°C 96% 3.0 mph N4.8 kmh N 4.3 mph6.9 kmh 29.19 in988.5 mb 0.08 in2.0 mm 0.24 in/hr6.1 mm/hr 0.83 in21.1 mm
06:47 PM 45.3°F7.4°C 44.2°F6.8°C 96% 1.8 mph N2.9 kmh N 4.3 mph6.9 kmh 29.18 in988.1 mb 0.08 in2.0 mm 0.00 in/hr0.0 mm/hr 0.83 in21.1 mm
06:52 PM 45.3°F7.4°C 44.2°F6.8°C 96% 3.0 mph N4.8 kmh N 4.0 mph6.4 kmh 29.18 in988.1 mb 0.06 in1.5 mm 0.00 in/hr0.0 mm/hr 0.83 in21.1 mm
06:57 PM 45.3°F7.4°C 44.2°F6.8°C 96% 3.7 mph NNW6.0 kmh NNW 7.8 mph12.6 kmh 29.18 in988.1 mb 0.08 in2.0 mm 0.24 in/hr6.1 mm/hr 0.85 in21.6 mm
07:02 PM 45.1°F7.3°C 44.1°F6.7°C 96% 2.6 mph N4.2 kmh N 7.8 mph12.6 kmh 29.18 in988.1 mb 0.08 in2.0 mm 0.00 in/hr0.0 mm/hr 0.85 in21.6 mm
07:07 PM 45.1°F7.3°C 44.1°F6.7°C 96% 3.0 mph NNW4.8 kmh NNW 7.2 mph11.6 kmh 29.17 in987.8 mb 0.06 in1.5 mm 0.00 in/hr0.0 mm/hr 0.85 in21.6 mm
07:12 PM 45.1°F7.3°C 44.1°F6.7°C 96% 3.0 mph N4.8 kmh N 4.7 mph7.6 kmh 29.17 in987.8 mb 0.08 in2.0 mm 0.24 in/hr6.1 mm/hr 0.87 in22.1 mm
07:17 PM 45.1°F7.3°C 44.1°F6.7°C 96% 2.6 mph 4.2 kmh 5.6 mph9.0 kmh 29.17 in987.8 mb 0.08 in2.0 mm 0.00 in/hr0.0 mm/hr 0.87 in22.1 mm
07:22 PM 45.1°F7.3°C 44.1°F6.7°C 96% 1.9 mph N3.1 kmh N 5.6 mph9.0 kmh 29.18 in988.1 mb 0.06 in1.5 mm 0.00 in/hr0.0 mm/hr 0.87 in22.1 mm
07:27 PM 45.1°F7.3°C 44.1°F6.7°C 96% 2.8 mph NE4.5 kmh NE 6.0 mph9.7 kmh 29.18 in988.1 mb 0.08 in2.0 mm 0.24 in/hr6.1 mm/hr 0.89 in22.6 mm
07:32 PM 45.1°F7.3°C 44.1°F6.7°C 96% 2.5 mph NNW4.0 kmh NNW 6.0 mph9.7 kmh 29.18 in988.1 mb 0.08 in2.0 mm 0.00 in/hr0.0 mm/hr 0.89 in22.6 mm
07:37 PM 45.1°F7.3°C 44.1°F6.7°C 96% 4.2 mph NW6.8 kmh NW 4.7 mph7.6 kmh 29.18 in988.1 mb 0.08 in2.0 mm 0.00 in/hr0.0 mm/hr 0.89 in22.6 mm
07:42 PM 45.1°F7.3°C 44.1°F6.7°C 96% 2.4 mph NNE3.9 kmh NNE 4.7 mph7.6 kmh 29.18 in988.1 mb 0.06 in1.5 mm 0.00 in/hr0.0 mm/hr 0.89 in22.6 mm
07:47 PM 45.1°F7.3°C 44.1°F6.7°C 96% 2.1 mph N3.4 kmh N 4.7 mph7.6 kmh 29.18 in988.1 mb 0.08 in2.0 mm 0.24 in/hr6.1 mm/hr 0.92 in23.4 mm
07:52 PM 45.0°F7.2°C 43.9°F6.6°C 96% 2.0 mph N3.2 kmh N 3.8 mph6.1 kmh 29.18 in988.1 mb 0.06 in1.5 mm 0.00 in/hr0.0 mm/hr 0.92 in23.4 mm
07:57 PM 45.0°F7.2°C 43.9°F6.6°C 96% 2.5 mph N4.0 kmh N 3.8 mph6.1 kmh 29.18 in988.1 mb 0.06 in1.5 mm 0.00 in/hr0.0 mm/hr 0.92 in23.4 mm
08:02 PM 45.0°F7.2°C 43.9°F6.6°C 96% 1.8 mph NE2.9 kmh NE 3.4 mph5.5 kmh 29.17 in987.8 mb 0.08 in2.0 mm 0.02 in/hr0.5 mm/hr 0.94 in23.9 mm
08:07 PM 45.0°F7.2°C 43.9°F6.6°C 96% 2.2 mph 3.5 kmh 7.2 mph11.6 kmh 29.17 in987.8 mb 0.08 in2.0 mm 0.00 in/hr0.0 mm/hr 0.94 in23.9 mm
08:12 PM 45.0°F7.2°C 43.9°F6.6°C 96% 2.6 mph NNE4.2 kmh NNE 7.2 mph11.6 kmh 29.17 in987.8 mb 0.06 in1.5 mm 0.00 in/hr0.0 mm/hr 0.94 in23.9 mm
08:17 PM 45.1°F7.3°C 44.1°F6.7°C 96% 2.4 mph 3.9 kmh 4.7 mph7.6 kmh 29.17 in987.8 mb 0.06 in1.5 mm 0.00 in/hr0.0 mm/hr 0.94 in23.9 mm
08:22 PM 45.1°F7.3°C 44.1°F6.7°C 96% 3.2 mph N5.1 kmh N 5.1 mph8.2 kmh 29.17 in987.8 mb 0.06 in1.5 mm 0.00 in/hr0.0 mm/hr 0.96 in24.4 mm
08:27 PM 45.1°F7.3°C 44.1°F6.7°C 96% 4.1 mph NNE6.6 kmh NNE 5.8 mph9.3 kmh 29.17 in987.8 mb 0.06 in1.5 mm 0.00 in/hr0.0 mm/hr 0.96 in24.4 mm
08:32 PM 45.1°F7.3°C 44.1°F6.7°C 96% 2.1 mph NNE3.4 kmh NNE 5.8 mph9.3 kmh 29.17 in987.8 mb 0.06 in1.5 mm 0.00 in/hr0.0 mm/hr 0.96 in24.4 mm
08:37 PM 45.3°F7.4°C 44.2°F6.8°C 96% 2.6 mph N4.2 kmh N 5.8 mph9.3 kmh 29.16 in987.5 mb 0.06 in1.5 mm 0.00 in/hr0.0 mm/hr 0.96 in24.4 mm
08:42 PM 45.3°F7.4°C 44.2°F6.8°C 96% 2.2 mph N3.5 kmh N 4.0 mph6.4 kmh 29.16 in987.5 mb 0.04 in1.0 mm 0.00 in/hr0.0 mm/hr 0.96 in24.4 mm
08:47 PM 45.3°F7.4°C 44.2°F6.8°C 96% 2.3 mph NW3.7 kmh NW 5.1 mph8.2 kmh 29.16 in987.5 mb 0.06 in1.5 mm 0.24 in/hr6.1 mm/hr 0.96 in24.4 mm
08:52 PM 45.3°F7.4°C 44.2°F6.8°C 96% 2.2 mph NNE3.5 kmh NNE 5.1 mph8.2 kmh 29.16 in987.5 mb 0.06 in1.5 mm 0.00 in/hr0.0 mm/hr 0.98 in24.9 mm
08:57 PM 45.3°F7.4°C 44.2°F6.8°C 96% 3.0 mph N4.8 kmh N 4.7 mph7.6 kmh 29.15 in987.1 mb 0.06 in1.5 mm 0.00 in/hr0.0 mm/hr 0.98 in24.9 mm
09:02 PM 45.3°F7.4°C 44.2°F6.8°C 96% 1.7 mph NNW2.7 kmh NNW 4.7 mph7.6 kmh 29.15 in987.1 mb 0.04 in1.0 mm 0.00 in/hr0.0 mm/hr 0.98 in24.9 mm
09:07 PM 45.3°F7.4°C 44.2°F6.8°C 96% 2.3 mph N3.7 kmh N 6.9 mph11.1 kmh 29.14 in986.8 mb 0.04 in1.0 mm 0.00 in/hr0.0 mm/hr 0.98 in24.9 mm
09:12 PM 45.3°F7.4°C 44.2°F6.8°C 96% 2.5 mph WNW4.0 kmh WNW 6.9 mph11.1 kmh 29.14 in986.8 mb 0.04 in1.0 mm 0.00 in/hr0.0 mm/hr 0.98 in24.9 mm
09:17 PM 45.1°F7.3°C 44.1°F6.7°C 96% 3.3 mph N5.3 kmh N 5.4 mph8.7 kmh 29.14 in986.8 mb 0.04 in1.0 mm 0.00 in/hr0.0 mm/hr 0.98 in24.9 mm
09:22 PM 45.1°F7.3°C 44.1°F6.7°C 96% 2.7 mph N4.3 kmh N 5.4 mph8.7 kmh 29.14 in986.8 mb 0.02 in0.5 mm 0.00 in/hr0.0 mm/hr 0.98 in24.9 mm
09:27 PM 45.1°F7.3°C 44.1°F6.7°C 96% 2.5 mph 4.0 kmh 3.8 mph6.1 kmh 29.14 in986.8 mb 0.02 in0.5 mm 0.00 in/hr0.0 mm/hr 0.98 in24.9 mm
09:32 PM 45.0°F7.2°C 43.9°F6.6°C 96% 1.9 mph N3.1 kmh N 3.4 mph5.5 kmh 29.13 in986.5 mb 0.02 in0.5 mm 0.00 in/hr0.0 mm/hr 0.98 in24.9 mm
09:37 PM 45.0°F7.2°C 43.9°F6.6°C 96% 4.5 mph N7.2 kmh N 6.5 mph10.5 kmh 29.13 in986.5 mb 0.02 in0.5 mm 0.00 in/hr0.0 mm/hr 0.98 in24.9 mm
09:42 PM 45.0°F7.2°C 43.9°F6.6°C 96% 2.6 mph N4.2 kmh N 6.5 mph10.5 kmh 29.13 in986.5 mb 0.02 in0.5 mm 0.00 in/hr0.0 mm/hr 0.98 in24.9 mm
09:47 PM 45.0°F7.2°C 43.9°F6.6°C 96% 3.1 mph N5.0 kmh N 5.8 mph9.3 kmh 29.12 in986.1 mb 0.00 in0.0 mm 0.00 in/hr0.0 mm/hr 0.98 in24.9 mm
09:52 PM 45.0°F7.2°C 43.9°F6.6°C 96% 3.4 mph N5.5 kmh N 5.8 mph9.3 kmh 29.12 in986.1 mb 0.00 in0.0 mm 0.00 in/hr0.0 mm/hr 0.98 in24.9 mm
09:57 PM 44.8°F7.1°C 43.7°F6.5°C 96% 3.4 mph N5.5 kmh N 6.5 mph10.5 kmh 29.12 in986.1 mb 0.00 in0.0 mm 0.00 in/hr0.0 mm/hr 0.98 in24.9 mm
10:02 PM 44.8°F7.1°C 43.7°F6.5°C 96% 2.3 mph NW3.7 kmh NW 6.5 mph10.5 kmh 29.11 in985.8 mb 0.00 in0.0 mm 0.00 in/hr0.0 mm/hr 0.98 in24.9 mm
10:07 PM 44.8°F7.1°C 43.7°F6.5°C 96% 3.3 mph NW5.3 kmh NW 7.8 mph12.6 kmh 29.11 in985.8 mb 0.02 in0.5 mm 0.24 in/hr6.1 mm/hr 1.00 in25.4 mm
10:12 PM 44.6°F7.0°C 43.5°F6.4°C 96% 1.4 mph N2.3 kmh N 7.8 mph12.6 kmh 29.11 in985.8 mb 0.02 in0.5 mm 0.00 in/hr0.0 mm/hr 1.00 in25.4 mm
10:17 PM 44.6°F7.0°C 43.5°F6.4°C 96% 1.9 mph NW3.1 kmh NW 4.5 mph7.2 kmh 29.10 in985.4 mb 0.02 in0.5 mm 0.00 in/hr0.0 mm/hr 1.00 in25.4 mm
10:22 PM 44.4°F6.9°C 43.3°F6.3°C 96% 2.3 mph N3.7 kmh N 7.4 mph11.9 kmh 29.11 in985.8 mb 0.02 in0.5 mm 0.00 in/hr0.0 mm/hr 1.00 in25.4 mm
10:27 PM 44.4°F6.9°C 43.3°F6.3°C 96% 3.4 mph N5.5 kmh N 7.4 mph11.9 kmh 29.11 in985.8 mb 0.02 in0.5 mm 0.00 in/hr0.0 mm/hr 1.00 in25.4 mm
10:32 PM 44.2°F6.8°C 43.2°F6.2°C 96% 2.7 mph WNW4.3 kmh WNW 6.0 mph9.7 kmh 29.11 in985.8 mb 0.02 in0.5 mm 0.00 in/hr0.0 mm/hr 1.00 in25.4 mm
10:37 PM 44.2°F6.8°C 43.2°F6.2°C 96% 2.7 mph N4.3 kmh N 5.1 mph8.2 kmh 29.11 in985.8 mb 0.02 in0.5 mm 0.00 in/hr0.0 mm/hr 1.00 in25.4 mm
10:42 PM 44.2°F6.8°C 43.2°F6.2°C 96% 1.6 mph N2.6 kmh N 4.3 mph6.9 kmh 29.11 in985.8 mb 0.02 in0.5 mm 0.00 in/hr0.0 mm/hr 1.00 in25.4 mm
10:47 PM 44.2°F6.8°C 43.2°F6.2°C 96% 4.9 mph NW7.9 kmh NW 10.5 mph16.9 kmh 29.11 in985.8 mb 0.02 in0.5 mm 0.00 in/hr0.0 mm/hr 1.00 in25.4 mm
10:52 PM 44.1°F6.7°C 43.0°F6.1°C 96% 2.2 mph N3.5 kmh N 10.5 mph16.9 kmh 29.11 in985.8 mb 0.02 in0.5 mm 0.00 in/hr0.0 mm/hr 1.00 in25.4 mm
10:57 PM 43.9°F6.6°C 42.8°F6.0°C 96% 3.2 mph NW5.1 kmh NW 5.6 mph9.0 kmh 29.10 in985.4 mb 0.02 in0.5 mm 0.00 in/hr0.0 mm/hr 1.00 in25.4 mm
11:02 PM 43.9°F6.6°C 42.8°F6.0°C 96% 3.5 mph NW5.6 kmh NW 9.4 mph15.1 kmh 29.10 in985.4 mb 0.00 in0.0 mm 0.00 in/hr0.0 mm/hr 0.68 in17.3 mm
11:07 PM 43.9°F6.6°C 42.5°F5.8°C 95% 3.2 mph NW5.1 kmh NW 9.4 mph15.1 kmh 29.11 in985.8 mb 0.00 in0.0 mm 0.00 in/hr0.0 mm/hr 0.68 in17.3 mm
11:12 PM 43.7°F6.5°C 42.4°F5.8°C 95% 2.6 mph NNW4.2 kmh NNW 6.7 mph10.8 kmh 29.11 in985.8 mb 0.00 in0.0 mm 0.00 in/hr0.0 mm/hr 0.68 in17.3 mm
11:17 PM 43.5°F6.4°C 42.2°F5.7°C 95% 4.0 mph WNW6.4 kmh WNW 7.2 mph11.6 kmh 29.10 in985.4 mb 0.00 in0.0 mm 0.00 in/hr0.0 mm/hr 0.68 in17.3 mm
11:22 PM 43.5°F6.4°C 42.2°F5.7°C 95% 2.5 mph NW4.0 kmh NW 7.2 mph11.6 kmh 29.11 in985.8 mb 0.00 in0.0 mm 0.00 in/hr0.0 mm/hr 0.68 in17.3 mm
11:27 PM 43.3°F6.3°C 42.0°F5.6°C 95% 3.3 mph N5.3 kmh N 7.2 mph11.6 kmh 29.11 in985.8 mb 0.00 in0.0 mm 0.00 in/hr0.0 mm/hr 0.68 in17.3 mm
11:32 PM 43.2°F6.2°C 41.8°F5.4°C 95% 3.9 mph NNW6.3 kmh NNW 4.9 mph7.9 kmh 29.10 in985.4 mb 0.00 in0.0 mm 0.00 in/hr0.0 mm/hr 0.68 in17.3 mm
11:37 PM 43.0°F6.1°C 41.6°F5.3°C 95% 4.3 mph NNW6.9 kmh NNW 9.8 mph15.8 kmh 29.10 in985.4 mb 0.00 in0.0 mm 0.00 in/hr0.0 mm/hr 0.68 in17.3 mm
11:42 PM 43.0°F6.1°C 41.6°F5.3°C 95% 5.8 mph W9.3 kmh W 9.8 mph15.8 kmh 29.10 in985.4 mb 0.00 in0.0 mm 0.00 in/hr0.0 mm/hr 0.68 in17.3 mm
11:47 PM 42.8°F6.0°C 41.5°F5.3°C 95% 5.4 mph NW8.7 kmh NW 9.6 mph15.4 kmh 29.10 in985.4 mb 0.00 in0.0 mm 0.00 in/hr0.0 mm/hr 0.68 in17.3 mm
11:52 PM 42.6°F5.9°C 41.3°F5.2°C 94% 3.3 mph NW5.3 kmh NW 8.3 mph13.4 kmh 29.10 in985.4 mb 0.00 in0.0 mm 0.00 in/hr0.0 mm/hr 0.68 in17.3 mm
11:57 PM 42.6°F5.9°C 41.0°F5.0°C 94% 4.6 mph NNE7.4 kmh NNE 9.8 mph15.8 kmh 29.10 in985.4 mb 0.00 in0.0 mm 0.00 in/hr0.0 mm/hr 0.68 in17.3 mm